Time;durP1;ratioP1;P1;durP2;ratioP2;P2;SDS_P1;SDS_P2;PMS_P1;PMS_P2;Temp;Humidity;BMP_temperature;BMP_pressure;BME280_temperature;BME280_humidity;BME280_pressure;Samples;Min_cycle;Max_cycle;Signal;HPM_P1;HPM_P2
2021/06/08 00:00:09;;;;;;;8.50;6.13;;;;;;;;;;5051508;28;20028;-87
2021/06/08 00:02:34;;;;;;;7.78;5.40;;;;;;;;;;5066432;28;20025;-87
2021/06/08 00:04:59;;;;;;;14.98;5.78;;;;;;;;;;5063475;28;20025;-87
2021/06/08 00:07:24;;;;;;;6.78;5.03;;;;;;;;;;5066628;28;20104;-87
2021/06/08 00:09:49;;;;;;;9.50;5.30;;;;;;;;;;5061325;28;20013;-87
2021/06/08 00:12:14;;;;;;;9.88;5.28;;;;;;;;;;5070986;28;20013;-87
2021/06/08 00:14:40;;;;;;;11.02;6.07;;;;;;;;;;5070996;28;20021;-87
2021/06/08 00:17:05;;;;;;;8.45;5.60;;;;;;;;;;5052855;28;20025;-87
2021/06/08 00:19:30;;;;;;;20.42;7.85;;;;;;;;;;5072143;28;20363;-87
2021/06/08 00:21:55;;;;;;;9.57;6.75;;;;;;;;;;5070963;28;20425;-87
2021/06/08 00:24:21;;;;;;;11.13;6.18;;;;;;;;;;5070814;28;20012;-87
2021/06/08 00:26:46;;;;;;;11.85;6.88;;;;;;;;;;5070838;28;20387;-87
2021/06/08 00:29:11;;;;;;;9.13;6.03;;;;;;;;;;5070818;28;20035;-87
2021/06/08 00:31:36;;;;;;;14.00;6.95;;;;;;;;;;5060295;28;20025;-87
2021/06/08 00:34:02;;;;;;;8.32;5.82;;;;;;;;;;5070825;28;20024;-87
2021/06/08 00:36:27;;;;;;;12.60;6.60;;;;;;;;;;5070702;28;20036;-87
2021/06/08 00:38:52;;;;;;;12.88;6.55;;;;;;;;;;5067972;28;20464;-87
2021/06/08 00:41:19;;;;;;;8.65;6.03;;;;;;;;;;5066492;28;20020;-87
2021/06/08 00:43:45;;;;;;;17.20;7.88;;;;;;;;;;5071708;28;20032;-87
2021/06/08 00:46:10;;;;;;;7.75;6.40;;;;;;;;;;5072280;28;20023;-87
2021/06/08 00:48:35;;;;;;;13.75;7.13;;;;;;;;;;5073964;28;20391;-87
2021/06/08 00:51:00;;;;;;;14.27;8.10;;;;;;;;;;5061246;28;20595;-87
2021/06/08 00:53:25;;;;;;;12.38;7.95;;;;;;;;;;5062004;28;20055;-87
2021/06/08 00:55:51;;;;;;;11.68;6.88;;;;;;;;;;5074146;28;20020;-87
2021/06/08 00:58:16;;;;;;;11.70;8.35;;;;;;;;;;5071368;28;20043;-87
2021/06/08 01:00:41;;;;;;;13.07;8.20;;;;;;;;;;5074187;28;20487;-86
2021/06/08 01:03:06;;;;;;;12.38;8.15;;;;;;;;;;5073794;28;20021;-87
2021/06/08 01:05:32;;;;;;;12.40;8.30;;;;;;;;;;5073893;28;20361;-86
2021/06/08 01:07:57;;;;;;;12.38;7.90;;;;;;;;;;5073831;28;20388;-87
2021/06/08 01:10:22;;;;;;;11.35;7.95;;;;;;;;;;5069722;28;20013;-87
2021/06/08 01:12:47;;;;;;;11.88;8.10;;;;;;;;;;5063964;28;20028;-87
2021/06/08 01:15:13;;;;;;;13.13;7.65;;;;;;;;;;5073530;28;20472;-87
2021/06/08 01:17:39;;;;;;;16.02;7.20;;;;;;;;;;5075156;28;20048;-87
2021/06/08 01:20:05;;;;;;;11.02;7.00;;;;;;;;;;5073715;28;20051;-86
2021/06/08 01:22:30;;;;;;;10.45;7.20;;;;;;;;;;5073430;28;20502;-86
2021/06/08 01:24:55;;;;;;;10.15;7.45;;;;;;;;;;5072107;28;20067;-87
2021/06/08 01:27:21;;;;;;;8.70;7.10;;;;;;;;;;5070585;28;20033;-86
2021/06/08 01:29:47;;;;;;;8.98;6.85;;;;;;;;;;5073296;28;20403;-87
2021/06/08 01:32:12;;;;;;;8.40;6.60;;;;;;;;;;5072968;28;20379;-86
2021/06/08 01:34:38;;;;;;;10.65;6.97;;;;;;;;;;5073318;28;20048;-87
2021/06/08 01:37:04;;;;;;;8.90;6.53;;;;;;;;;;5073161;28;20111;-87
2021/06/08 01:39:31;;;;;;;11.80;6.72;;;;;;;;;;5074329;28;20078;-86
2021/06/08 01:41:56;;;;;;;8.32;6.53;;;;;;;;;;5065867;28;20078;-87
2021/06/08 01:44:21;;;;;;;8.93;7.00;;;;;;;;;;5066804;28;20369;-87
2021/06/08 01:46:46;;;;;;;12.35;7.80;;;;;;;;;;5062339;28;20028;-86
2021/06/08 01:49:12;;;;;;;8.73;6.88;;;;;;;;;;5058108;28;20025;-86
2021/06/08 01:51:40;;;;;;;9.98;6.57;;;;;;;;;;5065252;28;20432;-86
2021/06/08 01:54:08;;;;;;;8.45;6.35;;;;;;;;;;5073110;28;20025;-86
2021/06/08 01:56:34;;;;;;;10.40;6.22;;;;;;;;;;5072433;28;20011;-86
2021/06/08 01:59:18;;;;;;;8.20;6.13;;;;;;;;;;5066806;28;20047;-86
2021/06/08 02:02:07;;;;;;;9.82;6.00;;;;;;;;;;5071779;28;20039;-86
2021/06/08 02:04:56;;;;;;;8.82;6.00;;;;;;;;;;5063208;28;20028;-86
2021/06/08 02:07:28;;;;;;;8.15;6.00;;;;;;;;;;5059913;28;20021;-86
2021/06/08 02:09:59;;;;;;;9.98;7.18;;;;;;;;;;5055240;28;20021;-87
2021/06/08 02:12:24;;;;;;;12.70;6.45;;;;;;;;;;5069263;28;20016;-87
2021/06/08 02:15:02;;;;;;;8.48;6.50;;;;;;;;;;5072517;28;20055;-87
2021/06/08 02:17:33;;;;;;;10.00;6.43;;;;;;;;;;5072591;28;20031;-86
2021/06/08 02:20:01;;;;;;;9.27;6.67;;;;;;;;;;5072560;28;20021;-87
2021/06/08 02:22:27;;;;;;;10.45;7.60;;;;;;;;;;5072614;28;20025;-87
2021/06/08 02:24:53;;;;;;;12.40;7.45;;;;;;;;;;5072578;28;20024;-86
2021/06/08 02:27:21;;;;;;;10.13;7.32;;;;;;;;;;5072391;28;20039;-86
2021/06/08 02:29:47;;;;;;;12.52;6.40;;;;;;;;;;5058867;28;20075;-87
2021/06/08 02:32:13;;;;;;;14.48;6.65;;;;;;;;;;5066997;28;20013;-87
2021/06/08 02:34:38;;;;;;;13.93;7.00;;;;;;;;;;5072428;28;20044;-87
2021/06/08 02:37:04;;;;;;;10.50;7.10;;;;;;;;;;5072075;28;20463;-86
2021/06/08 02:39:30;;;;;;;8.75;6.80;;;;;;;;;;5073205;28;20013;-86
2021/06/08 02:41:56;;;;;;;10.02;7.03;;;;;;;;;;5071474;28;20043;-86
2021/06/08 02:44:22;;;;;;;8.68;6.40;;;;;;;;;;5058076;28;20052;-86
2021/06/08 02:46:47;;;;;;;9.27;6.43;;;;;;;;;;5070644;28;20086;-86
2021/06/08 02:49:12;;;;;;;8.63;6.15;;;;;;;;;;5069921;28;20028;-85
2021/06/08 02:51:38;;;;;;;8.98;6.65;;;;;;;;;;5071839;28;20391;-86
2021/06/08 02:54:04;;;;;;;9.98;6.47;;;;;;;;;;5071964;28;20016;-86
2021/06/08 02:56:29;;;;;;;14.23;6.65;;;;;;;;;;5071659;28;20027;-86
2021/06/08 02:58:55;;;;;;;9.52;6.70;;;;;;;;;;5072947;28;20024;-87
2021/06/08 03:01:20;;;;;;;8.90;6.20;;;;;;;;;;5066173;28;20457;-86
2021/06/08 03:03:47;;;;;;;9.52;6.55;;;;;;;;;;5051695;28;20029;-86
2021/06/08 03:06:23;;;;;;;8.40;6.25;;;;;;;;;;5051435;28;20055;-86
2021/06/08 03:08:51;;;;;;;11.10;6.93;;;;;;;;;;5071261;28;20028;-87
2021/06/08 03:11:21;;;;;;;12.95;7.72;;;;;;;;;;5071388;28;20020;-86
2021/06/08 03:13:46;;;;;;;12.02;7.57;;;;;;;;;;5071400;28;20020;-86
2021/06/08 03:16:12;;;;;;;10.30;7.32;;;;;;;;;;5071514;28;20081;-86
2021/06/08 03:18:39;;;;;;;12.70;7.95;;;;;;;;;;5071201;28;20028;-86
2021/06/08 03:21:18;;;;;;;14.10;7.65;;;;;;;;;;5071454;28;20033;-86
2021/06/08 03:24:03;;;;;;;11.75;7.53;;;;;;;;;;5068016;28;20020;-86
2021/06/08 03:26:29;;;;;;;10.35;7.63;;;;;;;;;;5071394;28;20556;-86
2021/06/08 03:28:55;;;;;;;11.60;7.05;;;;;;;;;;5072318;28;20347;-86
2021/06/08 03:31:20;;;;;;;11.18;7.05;;;;;;;;;;5061303;28;20025;-86
2021/06/08 03:33:46;;;;;;;9.82;7.03;;;;;;;;;;5069768;28;20039;-86
2021/06/08 03:36:12;;;;;;;16.85;7.63;;;;;;;;;;5071209;28;20035;-86
2021/06/08 03:38:39;;;;;;;12.40;7.35;;;;;;;;;;5069183;28;20029;-86
2021/06/08 03:41:04;;;;;;;9.40;6.72;;;;;;;;;;5065242;28;20021;-86
2021/06/08 03:43:30;;;;;;;10.82;6.57;;;;;;;;;;5064266;28;20028;-86
2021/06/08 03:45:55;;;;;;;17.35;7.78;;;;;;;;;;5070954;28;20008;-86
2021/06/08 03:48:21;;;;;;;12.52;7.47;;;;;;;;;;5067988;28;20130;-86
2021/06/08 03:50:48;;;;;;;9.32;7.15;;;;;;;;;;5071130;28;20070;-87
2021/06/08 03:53:13;;;;;;;8.55;6.78;;;;;;;;;;5070986;28;20009;-86
2021/06/08 03:55:39;;;;;;;13.73;7.95;;;;;;;;;;5059619;28;20071;-86
2021/06/08 03:58:11;;;;;;;10.43;7.70;;;;;;;;;;5068168;28;20013;-86
2021/06/08 04:00:36;;;;;;;10.75;7.15;;;;;;;;;;5071086;28;20025;-86
2021/06/08 04:03:03;;;;;;;9.75;6.75;;;;;;;;;;5099248;28;20074;-86
2021/06/08 04:05:28;;;;;;;9.00;6.40;;;;;;;;;;5071180;28;20048;-86
2021/06/08 04:07:53;;;;;;;9.55;7.40;;;;;;;;;;5070794;28;20056;-85
2021/06/08 04:10:20;;;;;;;11.00;7.22;;;;;;;;;;5071021;28;20420;-86
2021/06/08 04:12:45;;;;;;;12.45;7.70;;;;;;;;;;5066547;28;20480;-86
2021/06/08 04:15:11;;;;;;;12.40;7.13;;;;;;;;;;5070785;28;20039;-86
2021/06/08 04:17:36;;;;;;;13.57;6.88;;;;;;;;;;5070942;28;20499;-86
2021/06/08 04:20:03;;;;;;;12.85;7.47;;;;;;;;;;5071913;28;20042;-86
2021/06/08 04:22:29;;;;;;;10.80;7.35;;;;;;;;;;5075798;28;20025;-86
2021/06/08 04:24:54;;;;;;;9.30;7.18;;;;;;;;;;5071868;28;20337;-86
2021/06/08 04:27:28;;;;;;;12.80;7.13;;;;;;;;;;5060592;28;20534;-86
2021/06/08 04:29:53;;;;;;;8.10;6.28;;;;;;;;;;5074498;28;20012;-86
2021/06/08 04:32:19;;;;;;;15.32;7.22;;;;;;;;;;5074327;28;20016;-86
2021/06/08 04:34:49;;;;;;;9.48;6.82;;;;;;;;;;5074339;28;20357;-86
2021/06/08 04:37:14;;;;;;;11.27;7.25;;;;;;;;;;5072264;28;20059;-86
2021/06/08 04:39:39;;;;;;;12.30;7.85;;;;;;;;;;5063810;28;20398;-85
2021/06/08 04:42:06;;;;;;;15.93;8.18;;;;;;;;;;5074170;28;20025;-86
2021/06/08 04:44:31;;;;;;;15.38;8.50;;;;;;;;;;5067731;28;20052;-86
2021/06/08 04:46:56;;;;;;;13.85;8.98;;;;;;;;;;5069154;28;20460;-86
2021/06/08 04:49:21;;;;;;;15.35;8.30;;;;;;;;;;5073794;28;20142;-86
2021/06/08 04:51:46;;;;;;;13.60;8.70;;;;;;;;;;5075401;28;20047;-86
2021/06/08 04:54:12;;;;;;;17.90;11.27;;;;;;;;;;5074035;28;20104;-86
2021/06/08 04:56:37;;;;;;;22.63;14.73;;;;;;;;;;5073848;28;20044;-86
2021/06/08 04:59:03;;;;;;;25.50;18.48;;;;;;;;;;5074135;28;20529;-85
2021/06/08 05:01:31;;;;;;;33.83;19.15;;;;;;;;;;5066924;28;20445;-85
2021/06/08 05:04:00;;;;;;;30.33;19.88;;;;;;;;;;5073776;28;20395;-86
2021/06/08 05:06:28;;;;;;;30.80;20.73;;;;;;;;;;5075017;28;20035;-85
2021/06/08 05:08:56;;;;;;;34.97;22.95;;;;;;;;;;5073760;28;20032;-86
2021/06/08 05:11:22;;;;;;;42.42;27.58;;;;;;;;;;5073919;28;20017;-86
2021/06/08 05:13:49;;;;;;;47.83;28.80;;;;;;;;;;5073872;28;20111;-86
2021/06/08 05:16:15;;;;;;;45.58;30.00;;;;;;;;;;5060872;28;20126;-86
2021/06/08 05:18:42;;;;;;;44.20;30.63;;;;;;;;;;5072572;28;20121;-86
2021/06/08 05:21:09;;;;;;;43.75;30.23;;;;;;;;;;5074981;28;20086;-86
2021/06/08 05:23:34;;;;;;;46.53;30.55;;;;;;;;;;5069837;28;20040;-86
2021/06/08 05:26:00;;;;;;;42.63;28.02;;;;;;;;;;5072910;28;20102;-86
2021/06/08 05:28:26;;;;;;;47.22;28.50;;;;;;;;;;5062612;28;20027;-86
2021/06/08 05:30:51;;;;;;;45.63;29.02;;;;;;;;;;5073380;28;20021;-86
2021/06/08 05:33:21;;;;;;;42.22;28.00;;;;;;;;;;5074442;28;20067;-86
2021/06/08 05:35:47;;;;;;;43.20;28.65;;;;;;;;;;5073088;28;20419;-86
2021/06/08 05:38:12;;;;;;;39.28;27.70;;;;;;;;;;5072992;28;20531;-86
2021/06/08 05:40:39;;;;;;;41.88;28.23;;;;;;;;;;5073010;28;20047;-86
2021/06/08 05:43:04;;;;;;;41.33;26.48;;;;;;;;;;5066528;28;20108;-86
2021/06/08 05:45:31;;;;;;;42.47;28.08;;;;;;;;;;5059866;28;20506;-86
2021/06/08 05:47:56;;;;;;;41.33;26.48;;;;;;;;;;5065815;28;20131;-86
2021/06/08 05:50:21;;;;;;;39.28;25.98;;;;;;;;;;5062819;28;20048;-86
2021/06/08 05:52:47;;;;;;;40.83;26.08;;;;;;;;;;5073351;28;20016;-86
2021/06/08 05:55:13;;;;;;;38.58;25.38;;;;;;;;;;5073013;28;20012;-86
2021/06/08 05:57:38;;;;;;;41.92;24.40;;;;;;;;;;5074247;28;20013;-86
2021/06/08 06:00:04;;;;;;;35.30;23.33;;;;;;;;;;5072802;28;20671;-86
2021/06/08 06:02:32;;;;;;;36.20;24.02;;;;;;;;;;5072869;28;20094;-86
2021/06/08 06:04:58;;;;;;;40.55;24.10;;;;;;;;;;5054437;28;20031;-86
2021/06/08 06:07:23;;;;;;;43.10;25.98;;;;;;;;;;5052195;28;20060;-85
2021/06/08 06:09:48;;;;;;;39.78;26.17;;;;;;;;;;5066121;28;20091;-85
2021/06/08 06:12:14;;;;;;;44.13;25.17;;;;;;;;;;5057493;28;20044;-86
2021/06/08 06:14:39;;;;;;;40.58;25.95;;;;;;;;;;5061196;28;20053;-86
2021/06/08 06:17:07;;;;;;;41.80;26.48;;;;;;;;;;5066782;28;20070;-86
2021/06/08 06:19:33;;;;;;;45.88;27.27;;;;;;;;;;5070695;28;20025;-86
2021/06/08 06:21:58;;;;;;;44.25;27.05;;;;;;;;;;5071430;28;20013;-86
2021/06/08 06:24:28;;;;;;;46.15;26.48;;;;;;;;;;5062689;28;20021;-86
2021/06/08 06:26:54;;;;;;;46.25;26.58;;;;;;;;;;5072064;28;20029;-86
2021/06/08 06:29:19;;;;;;;43.80;26.50;;;;;;;;;;5054028;28;20448;-86
2021/06/08 06:31:45;;;;;;;41.95;25.08;;;;;;;;;;5066558;28;20107;-86
2021/06/08 06:34:15;;;;;;;39.75;25.02;;;;;;;;;;5054083;28;20472;-86
2021/06/08 06:36:42;;;;;;;42.33;27.10;;;;;;;;;;5065010;28;20111;-86
2021/06/08 06:39:21;;;;;;;42.75;26.67;;;;;;;;;;5063240;28;20013;-86
2021/06/08 06:41:49;;;;;;;50.95;28.80;;;;;;;;;;5095008;28;20048;-87
2021/06/08 06:44:15;;;;;;;42.08;27.77;;;;;;;;;;5070342;28;20036;-87
2021/06/08 06:46:41;;;;;;;46.58;28.30;;;;;;;;;;5065565;28;20376;-86
2021/06/08 06:49:06;;;;;;;51.35;30.38;;;;;;;;;;5064776;28;20028;-87
2021/06/08 06:51:32;;;;;;;47.80;28.60;;;;;;;;;;5069825;28;20485;-86
2021/06/08 06:53:57;;;;;;;55.10;31.00;;;;;;;;;;5063150;28;20012;-86
2021/06/08 06:56:23;;;;;;;50.50;30.33;;;;;;;;;;5067329;28;20028;-86
2021/06/08 06:58:48;;;;;;;41.83;23.95;;;;;;;;;;5055886;28;20029;-86
2021/06/08 07:01:14;;;;;;;45.35;28.40;;;;;;;;;;5066762;28;20036;-86
2021/06/08 07:03:40;;;;;;;42.70;26.77;;;;;;;;;;5067225;28;20117;-86
2021/06/08 07:06:07;;;;;;;42.88;27.48;;;;;;;;;;5058782;28;20029;-87
2021/06/08 07:08:33;;;;;;;47.53;28.00;;;;;;;;;;5070877;28;20028;-86
2021/06/08 07:10:58;;;;;;;53.20;28.80;;;;;;;;;;5066054;28;20013;-86
2021/06/08 07:13:24;;;;;;;44.72;27.15;;;;;;;;;;5069990;28;20024;-86
2021/06/08 07:15:50;;;;;;;47.20;27.67;;;;;;;;;;5064105;28;20104;-86
2021/06/08 07:18:16;;;;;;;47.75;27.42;;;;;;;;;;5066575;28;20459;-87
2021/06/08 07:20:41;;;;;;;49.53;28.08;;;;;;;;;;5070552;28;20028;-87
2021/06/08 07:23:07;;;;;;;46.70;27.60;;;;;;;;;;5059509;28;20047;-87
2021/06/08 07:25:36;;;;;;;43.88;26.38;;;;;;;;;;5067307;28;20036;-87
2021/06/08 07:28:02;;;;;;;49.70;28.75;;;;;;;;;;5063158;28;20048;-87
2021/06/08 07:30:27;;;;;;;44.78;28.17;;;;;;;;;;5063748;28;20381;-87
2021/06/08 07:32:58;;;;;;;47.90;28.58;;;;;;;;;;5061313;28;20028;-87
2021/06/08 07:35:30;;;;;;;50.47;28.65;;;;;;;;;;5069586;28;20025;-87
2021/06/08 07:37:57;;;;;;;41.08;25.38;;;;;;;;;;5061942;28;20029;-87
2021/06/08 07:40:25;;;;;;;44.30;25.60;;;;;;;;;;5065881;28;20039;-87
2021/06/08 07:42:59;;;;;;;40.13;25.05;;;;;;;;;;5063269;28;20031;-87
2021/06/08 07:45:27;;;;;;;42.17;25.83;;;;;;;;;;5063215;28;20181;-87
2021/06/08 07:47:53;;;;;;;44.70;26.90;;;;;;;;;;5056882;28;20349;-87
2021/06/08 07:50:21;;;;;;;50.17;24.60;;;;;;;;;;5055207;28;20021;-87
2021/06/08 07:52:50;;;;;;;35.40;20.48;;;;;;;;;;5066896;28;20020;-87
2021/06/08 07:55:16;;;;;;;36.38;22.13;;;;;;;;;;5068495;28;20013;-87
2021/06/08 07:57:44;;;;;;;34.92;22.13;;;;;;;;;;5069210;28;20086;-87
2021/06/08 08:00:10;;;;;;;33.40;21.02;;;;;;;;;;5069464;28;20040;-87
2021/06/08 08:02:35;;;;;;;34.60;21.20;;;;;;;;;;5068628;28;20055;-87
2021/06/08 08:05:08;;;;;;;40.13;23.50;;;;;;;;;;5068826;28;20017;-87
2021/06/08 08:07:33;;;;;;;37.83;24.55;;;;;;;;;;5060308;28;20025;-87
2021/06/08 08:10:00;;;;;;;37.70;23.70;;;;;;;;;;5055192;28;20055;-87
2021/06/08 08:12:25;;;;;;;35.55;22.52;;;;;;;;;;5053044;28;20017;-87
2021/06/08 08:14:52;;;;;;;32.95;19.52;;;;;;;;;;5053434;28;20368;-87
2021/06/08 08:17:18;;;;;;;31.33;21.02;;;;;;;;;;5055843;28;20017;-86
2021/06/08 08:19:43;;;;;;;33.75;21.60;;;;;;;;;;5054200;28;20093;-86
2021/06/08 08:22:08;;;;;;;34.80;19.63;;;;;;;;;;5053790;28;20020;-87
2021/06/08 08:24:34;;;;;;;33.10;20.60;;;;;;;;;;5054230;28;20167;-86
2021/06/08 08:27:01;;;;;;;35.78;22.77;;;;;;;;;;5054240;28;20017;-86
2021/06/08 08:29:26;;;;;;;38.90;22.98;;;;;;;;;;5060238;28;20044;-86
2021/06/08 08:31:52;;;;;;;33.95;18.80;;;;;;;;;;5058554;28;20025;-86
2021/06/08 08:34:17;;;;;;;31.25;20.02;;;;;;;;;;5053835;28;20017;-86
2021/06/08 08:36:42;;;;;;;40.53;23.58;;;;;;;;;;5054054;28;20016;-86
2021/06/08 08:39:10;;;;;;;36.10;20.65;;;;;;;;;;5054161;28;20013;-86
2021/06/08 08:41:35;;;;;;;32.80;19.77;;;;;;;;;;5054205;28;20441;-87
2021/06/08 08:44:02;;;;;;;31.70;20.80;;;;;;;;;;5053678;28;20150;-86
2021/06/08 08:46:27;;;;;;;38.50;23.05;;;;;;;;;;5052676;28;20500;-86
2021/06/08 08:48:54;;;;;;;36.97;23.75;;;;;;;;;;5066841;28;20059;-86
2021/06/08 08:51:20;;;;;;;39.65;23.38;;;;;;;;;;5070558;28;20383;-85
2021/06/08 08:53:46;;;;;;;30.38;16.92;;;;;;;;;;5063604;28;20017;-86
2021/06/08 08:56:11;;;;;;;29.92;17.15;;;;;;;;;;5069001;28;20104;-86
2021/06/08 08:58:37;;;;;;;31.77;20.90;;;;;;;;;;5063056;28;20441;-85
2021/06/08 09:01:02;;;;;;;30.55;19.42;;;;;;;;;;5072833;28;20020;-85
2021/06/08 09:03:28;;;;;;;31.63;16.77;;;;;;;;;;5073604;28;20021;-86
2021/06/08 09:05:59;;;;;;;34.65;20.13;;;;;;;;;;5065167;28;20111;-86
2021/06/08 09:08:24;;;;;;;32.85;18.77;;;;;;;;;;5066421;28;20048;-86
2021/06/08 09:10:50;;;;;;;34.50;20.85;;;;;;;;;;5055604;28;20463;-86
2021/06/08 09:13:16;;;;;;;32.47;21.00;;;;;;;;;;5049925;28;20070;-85
2021/06/08 09:15:41;;;;;;;29.60;18.25;;;;;;;;;;5053549;28;20108;-86
2021/06/08 09:18:07;;;;;;;30.23;18.35;;;;;;;;;;5053040;28;20027;-85
2021/06/08 09:20:32;;;;;;;18.20;10.63;;;;;;;;;;5054343;28;20025;-86
2021/06/08 09:22:58;;;;;;;20.48;9.60;;;;;;;;;;5052345;28;20158;-85
2021/06/08 09:25:36;;;;;;;25.33;14.13;;;;;;;;;;5052007;28;20021;-85
2021/06/08 09:28:20;;;;;;;24.13;14.75;;;;;;;;;;5050261;28;20166;-85
2021/06/08 09:30:46;;;;;;;21.65;15.63;;;;;;;;;;5055277;28;20022;-86
2021/06/08 09:33:23;;;;;;;22.77;12.45;;;;;;;;;;5054366;28;20017;-86
2021/06/08 09:35:49;;;;;;;14.88;9.52;;;;;;;;;;5059194;28;20430;-85
2021/06/08 09:38:14;;;;;;;15.07;10.40;;;;;;;;;;5052907;28;20062;-86
2021/06/08 09:40:41;;;;;;;15.27;9.02;;;;;;;;;;5052920;28;20028;-86
2021/06/08 09:43:11;;;;;;;16.92;8.25;;;;;;;;;;5052604;28;20094;-85
2021/06/08 09:45:39;;;;;;;14.63;7.85;;;;;;;;;;5052915;28;20020;-86
2021/06/08 09:48:05;;;;;;;14.00;8.45;;;;;;;;;;5059211;28;20535;-86
2021/06/08 09:50:30;;;;;;;17.27;10.05;;;;;;;;;;5074210;28;20104;-86
2021/06/08 09:53:14;;;;;;;16.65;9.85;;;;;;;;;;5056325;28;20028;-86
2021/06/08 09:55:48;;;;;;;16.00;10.98;;;;;;;;;;5055417;28;20136;-85
2021/06/08 09:58:13;;;;;;;14.55;9.98;;;;;;;;;;5065913;28;20024;-86
2021/06/08 10:00:38;;;;;;;15.23;10.38;;;;;;;;;;5051938;28;20116;-86
2021/06/08 10:03:04;;;;;;;18.77;10.15;;;;;;;;;;5052291;28;20460;-86
2021/06/08 10:05:30;;;;;;;14.32;9.50;;;;;;;;;;5051725;28;20116;-86
2021/06/08 10:07:59;;;;;;;22.33;12.73;;;;;;;;;;5083493;28;20134;-85
2021/06/08 10:10:49;;;;;;;20.48;12.68;;;;;;;;;;5053696;28;20036;-85
2021/06/08 10:13:16;;;;;;;17.85;11.52;;;;;;;;;;5048386;28;20053;-86
2021/06/08 10:15:53;;;;;;;17.15;11.88;;;;;;;;;;5052947;28;20021;-85
2021/06/08 10:18:19;;;;;;;19.60;13.23;;;;;;;;;;5051220;28;20032;-86
2021/06/08 10:20:49;;;;;;;25.90;12.80;;;;;;;;;;5051844;28;20025;-86
2021/06/08 10:23:31;;;;;;;17.33;11.93;;;;;;;;;;5050118;28;20381;-87
2021/06/08 10:25:56;;;;;;;15.05;10.43;;;;;;;;;;5048161;28;20483;-85
2021/06/08 10:28:22;;;;;;;13.13;9.95;;;;;;;;;;5051285;28;20048;-86
2021/06/08 10:30:49;;;;;;;20.10;12.48;;;;;;;;;;5051453;28;20013;-86
2021/06/08 10:33:14;;;;;;;16.40;9.93;;;;;;;;;;5053605;28;20013;-86
2021/06/08 10:35:40;;;;;;;19.80;12.57;;;;;;;;;;5051114;28;20017;-86
2021/06/08 10:38:06;;;;;;;20.38;12.90;;;;;;;;;;5052607;28;20491;-86
2021/06/08 10:40:33;;;;;;;15.23;9.25;;;;;;;;;;5051045;28;20067;-86
2021/06/08 10:42:58;;;;;;;16.42;10.00;;;;;;;;;;5050526;28;20025;-86
2021/06/08 10:45:31;;;;;;;11.57;7.75;;;;;;;;;;5051541;28;20079;-86
2021/06/08 10:48:04;;;;;;;12.52;7.53;;;;;;;;;;5051688;28;20446;-86
2021/06/08 10:50:31;;;;;;;9.38;7.05;;;;;;;;;;5054491;28;20032;-86
2021/06/08 10:52:58;;;;;;;12.88;7.95;;;;;;;;;;5060443;28;20523;-87
2021/06/08 10:55:27;;;;;;;13.00;7.70;;;;;;;;;;5058310;28;20083;-86
2021/06/08 10:57:53;;;;;;;10.73;5.50;;;;;;;;;;5054552;28;20032;-86
2021/06/08 11:00:24;;;;;;;11.70;6.45;;;;;;;;;;5062037;28;20017;-86
2021/06/08 11:02:52;;;;;;;13.53;6.20;;;;;;;;;;5062263;28;20127;-85
2021/06/08 11:05:19;;;;;;;9.10;5.97;;;;;;;;;;5074407;28;20480;-87
2021/06/08 11:07:49;;;;;;;10.00;6.45;;;;;;;;;;5062970;28;20028;-86
2021/06/08 11:10:26;;;;;;;10.50;7.50;;;;;;;;;;5054470;28;20464;-86
2021/06/08 11:13:07;;;;;;;8.73;6.00;;;;;;;;;;5056676;28;20048;-86
2021/06/08 11:15:32;;;;;;;7.15;5.20;;;;;;;;;;5039858;28;20052;-87
2021/06/08 11:17:58;;;;;;;7.35;4.75;;;;;;;;;;5055042;28;20063;-87
2021/06/08 11:20:23;;;;;;;13.35;5.40;;;;;;;;;;5062156;28;20053;-87
2021/06/08 11:22:54;;;;;;;19.27;4.20;;;;;;;;;;5051282;28;20025;-86
2021/06/08 11:25:38;;;;;;;7.68;5.07;;;;;;;;;;5052697;28;20025;-86
2021/06/08 11:28:04;;;;;;;7.88;4.40;;;;;;;;;;5063079;28;20028;-87
2021/06/08 11:30:31;;;;;;;9.38;4.25;;;;;;;;;;5053783;28;20483;-86
2021/06/08 11:32:57;;;;;;;6.90;4.53;;;;;;;;;;5058801;28;20433;-86
2021/06/08 11:35:28;;;;;;;6.28;3.85;;;;;;;;;;5064422;28;20036;-86
2021/06/08 11:38:01;;;;;;;6.80;4.00;;;;;;;;;;5080166;28;20696;-86
2021/06/08 11:40:32;;;;;;;6.82;3.88;;;;;;;;;;5046969;28;20028;-85
2021/06/08 11:42:57;;;;;;;8.27;4.27;;;;;;;;;;5051425;28;20485;-86
2021/06/08 11:45:26;;;;;;;5.55;3.78;;;;;;;;;;5051194;28;20254;-86
2021/06/08 11:47:51;;;;;;;8.38;3.78;;;;;;;;;;5053333;28;20112;-86
2021/06/08 11:50:35;;;;;;;8.50;4.00;;;;;;;;;;5071986;28;20083;-86
2021/06/08 11:53:05;;;;;;;9.25;4.20;;;;;;;;;;5058792;28;20012;-86
2021/06/08 11:55:30;;;;;;;4.40;3.42;;;;;;;;;;5058502;28;20376;-86
2021/06/08 11:57:55;;;;;;;5.28;3.55;;;;;;;;;;5053342;28;20025;-86
2021/06/08 12:00:40;;;;;;;4.32;3.25;;;;;;;;;;5059582;28;20020;-86
2021/06/08 12:03:24;;;;;;;4.47;3.08;;;;;;;;;;5068618;28;20032;-86
2021/06/08 12:05:49;;;;;;;6.90;3.10;;;;;;;;;;5069847;28;20029;-86
2021/06/08 12:08:21;;;;;;;4.80;3.17;;;;;;;;;;5067746;28;20431;-86
2021/06/08 12:10:48;;;;;;;;;;;;;;;;;;5072461;28;20017;-86
2021/06/08 12:13:13;;;;;;;6.10;3.40;;;;;;;;;;5056575;28;19912;-86
2021/06/08 12:15:41;;;;;;;4.82;2.72;;;;;;;;;;5064177;28;20012;-86
2021/06/08 12:18:13;;;;;;;5.68;2.97;;;;;;;;;;5058307;28;20529;-85
2021/06/08 12:20:40;;;;;;;3.22;2.33;;;;;;;;;;5070747;28;20357;-86
2021/06/08 12:23:05;;;;;;;4.03;2.55;;;;;;;;;;5070487;28;20024;-86
2021/06/08 12:25:31;;;;;;;4.68;2.63;;;;;;;;;;5063357;28;20098;-86
2021/06/08 12:27:56;;;;;;;2.90;2.20;;;;;;;;;;5070428;28;20029;-86
2021/06/08 12:30:21;;;;;;;3.50;2.45;;;;;;;;;;5069427;28;20070;-86
2021/06/08 12:33:00;;;;;;;5.15;2.15;;;;;;;;;;5070781;28;20032;-86
2021/06/08 12:35:45;;;;;;;3.88;2.20;;;;;;;;;;5060158;28;20025;-86
2021/06/08 12:38:11;;;;;;;2.50;1.70;;;;;;;;;;5052139;28;20113;-86
2021/06/08 12:40:36;;;;;;;2.08;1.63;;;;;;;;;;5067992;28;20048;-86
2021/06/08 12:43:02;;;;;;;5.85;1.70;;;;;;;;;;5074595;28;20756;-86
2021/06/08 12:45:27;;;;;;;2.50;1.77;;;;;;;;;;5064720;28;20032;-86
2021/06/08 12:47:53;;;;;;;2.65;2.00;;;;;;;;;;5066190;28;20020;-84
2021/06/08 12:50:27;;;;;;;3.08;1.92;;;;;;;;;;5066775;28;20019;-84
2021/06/08 12:53:05;;;;;;;2.95;1.90;;;;;;;;;;5067720;28;20031;-83
2021/06/08 12:55:31;;;;;;;3.67;2.00;;;;;;;;;;5040931;28;20029;-83
2021/06/08 12:58:02;;;;;;;3.00;1.65;;;;;;;;;;5061042;28;20392;-83
2021/06/08 13:00:28;;;;;;;2.80;1.90;;;;;;;;;;5059412;28;20078;-84
2021/06/08 13:02:55;;;;;;;3.70;1.33;;;;;;;;;;5056788;28;20483;-83
2021/06/08 13:05:21;;;;;;;3.80;2.00;;;;;;;;;;5051832;28;20020;-84
2021/06/08 13:07:47;;;;;;;7.50;1.52;;;;;;;;;;5052648;28;20403;-84
2021/06/08 13:10:13;;;;;;;4.65;2.00;;;;;;;;;;5052882;28;20059;-84
2021/06/08 13:12:46;;;;;;;2.17;1.30;;;;;;;;;;5049354;28;20119;-83
2021/06/08 13:15:13;;;;;;;1.55;1.40;;;;;;;;;;5084396;28;20021;-83
2021/06/08 13:17:38;;;;;;;3.50;1.50;;;;;;;;;;5052388;28;20116;-83
2021/06/08 13:20:19;;;;;;;2.70;1.60;;;;;;;;;;5052824;28;20067;-83
2021/06/08 13:22:44;;;;;;;2.08;1.40;;;;;;;;;;5053530;28;20063;-83
2021/06/08 13:25:11;;;;;;;2.33;1.30;;;;;;;;;;5052615;28;20044;-83
2021/06/08 13:27:39;;;;;;;4.28;1.50;;;;;;;;;;5052277;28;20100;-83
2021/06/08 13:30:05;;;;;;;1.58;1.20;;;;;;;;;;5052346;28;20016;-83
2021/06/08 13:32:31;;;;;;;1.95;1.20;;;;;;;;;;5051834;28;20021;-83
2021/06/08 13:35:13;;;;;;;2.90;1.50;;;;;;;;;;5052631;28;20502;-82
2021/06/08 13:37:41;;;;;;;2.47;1.33;;;;;;;;;;5084958;28;20101;-83
2021/06/08 13:40:13;;;;;;;5.43;1.60;;;;;;;;;;5052307;28;20071;-83
2021/06/08 13:42:39;;;;;;;2.15;1.23;;;;;;;;;;5083227;28;20033;-83
2021/06/08 13:45:08;;;;;;;4.70;1.30;;;;;;;;;;5051942;28;20024;-83
2021/06/08 13:47:35;;;;;;;3.35;1.33;;;;;;;;;;5051618;28;20468;-83
2021/06/08 13:50:01;;;;;;;1.58;1.42;;;;;;;;;;5071628;28;20012;-84
2021/06/08 13:52:45;;;;;;;2.55;1.58;;;;;;;;;;5068894;28;20074;-84
2021/06/08 13:55:11;;;;;;;2.05;1.30;;;;;;;;;;5039733;28;20036;-84
2021/06/08 13:57:44;;;;;;;6.90;1.42;;;;;;;;;;5063608;28;20028;-84
2021/06/08 14:00:27;;;;;;;6.30;1.50;;;;;;;;;;5053406;28;20020;-84
2021/06/08 14:02:55;;;;;;;5.45;1.40;;;;;;;;;;5064869;28;20017;-86
2021/06/08 14:05:24;;;;;;;4.30;1.20;;;;;;;;;;5066102;28;20089;-86
2021/06/08 14:07:49;;;;;;;1.95;1.38;;;;;;;;;;5051387;28;20024;-86
2021/06/08 14:10:15;;;;;;;5.60;1.95;;;;;;;;;;5053375;28;20013;-87
2021/06/08 14:13:00;;;;;;;2.10;1.25;;;;;;;;;;5053212;28;20013;-86
2021/06/08 14:15:25;;;;;;;2.15;1.20;;;;;;;;;;5067272;28;20483;-87
2021/06/08 14:17:51;;;;;;;2.28;1.40;;;;;;;;;;5052029;28;20055;-87
2021/06/08 14:20:17;;;;;;;2.65;1.55;;;;;;;;;;5052150;28;20040;-86
2021/06/08 14:22:42;;;;;;;5.63;1.10;;;;;;;;;;5046269;28;20468;-87
2021/06/08 14:25:08;;;;;;;6.63;2.58;;;;;;;;;;5051923;28;20017;-87
2021/06/08 14:27:35;;;;;;;2.88;1.20;;;;;;;;;;5053578;28;20031;-87
2021/06/08 14:30:00;;;;;;;4.18;1.35;;;;;;;;;;5052100;28;20025;-86
2021/06/08 14:32:25;;;;;;;4.00;1.55;;;;;;;;;;5053662;28;20025;-87